Time;durP1;ratioP1;P1;durP2;ratioP2;P2;SDS_P1;SDS_P2;PMS_P1;PMS_P2;Temp;Humidity;BMP_temperature;BMP_pressure;BME280_temperature;BME280_humidity;BME280_pressure;Samples;Min_cycle;Max_cycle;Signal;HPM_P1;HPM_P2
2023/03/17 00:01:08;;;;;;;6.50;3.17;;;;;;;15.55;41.14;100813.88;5068314;28;20024;-68
2023/03/17 00:03:37;;;;;;;5.43;3.50;;;;;;;16.26;40.04;100806.34;5068912;28;20337;-67
2023/03/17 00:06:04;;;;;;;4.80;3.17;;;;;;;16.42;39.91;100806.69;5066887;28;20039;-68
2023/03/17 00:08:34;;;;;;;7.90;3.07;;;;;;;16.53;39.29;100793.13;5067428;28;20687;-67
2023/03/17 00:11:00;;;;;;;5.47;2.83;;;;;;;16.69;38.99;100781.09;5067972;28;20516;-67
2023/03/17 00:13:26;;;;;;;5.07;2.70;;;;;;;15.47;40.78;100786.91;5067353;28;20025;-67
2023/03/17 00:16:01;;;;;;;8.33;3.20;;;;;;;15.56;40.85;100784.00;5068944;28;20024;-68
2023/03/17 00:18:29;;;;;;;4.37;3.37;;;;;;;16.55;39.37;100778.06;5067707;28;20169;-67
2023/03/17 00:20:54;;;;;;;6.10;3.30;;;;;;;16.26;40.26;100793.16;5067516;28;20476;-67
2023/03/17 00:23:22;;;;;;;4.27;2.97;;;;;;;16.67;38.89;100787.34;5069656;28;20031;-67
2023/03/17 00:25:48;;;;;;;6.17;3.10;;;;;;;16.45;39.05;100788.94;5068182;28;20477;-66
2023/03/17 00:28:18;;;;;;;7.80;3.17;;;;;;;16.39;39.43;100776.00;5065971;28;20024;-67
2023/03/17 00:30:44;;;;;;;4.07;2.67;;;;;;;15.51;41.21;100767.47;5066474;28;20035;-67
2023/03/17 00:33:10;;;;;;;3.83;2.63;;;;;;;15.21;41.92;100775.41;5067207;28;20028;-67
2023/03/17 00:35:35;;;;;;;4.47;2.97;;;;;;;15.14;41.68;100777.38;5069863;28;20150;-67
2023/03/17 00:38:01;;;;;;;4.73;2.87;;;;;;;15.70;41.27;100773.88;5067566;28;20428;-67
2023/03/17 00:40:29;;;;;;;5.13;2.80;;;;;;;15.54;40.98;100777.91;5067259;28;20621;-67
2023/03/17 00:42:56;;;;;;;4.77;2.80;;;;;;;15.80;40.87;100779.75;5061794;28;20063;-67
2023/03/17 00:45:22;;;;;;;6.00;3.07;;;;;;;16.08;40.20;100774.41;5056520;28;20383;-67
2023/03/17 00:47:50;;;;;;;6.20;3.20;;;;;;;15.95;39.80;100754.66;5055371;28;20508;-67
2023/03/17 00:50:23;;;;;;;5.20;2.83;;;;;;;15.88;40.64;100743.47;5047533;28;20396;-67
2023/03/17 00:52:51;;;;;;;6.77;3.33;;;;;;;16.06;39.95;100760.44;5079766;28;20127;-67
2023/03/17 00:55:18;;;;;;;6.60;2.80;;;;;;;16.07;40.09;100767.44;5067707;28;20452;-68
2023/03/17 00:57:46;;;;;;;3.77;2.87;;;;;;;16.18;39.87;100771.47;5066423;28;20017;-68
2023/03/17 01:00:32;;;;;;;3.00;2.50;;;;;;;16.83;38.69;100769.16;5068847;28;20024;-66
2023/03/17 01:02:57;;;;;;;5.27;3.30;;;;;;;15.83;40.47;100776.16;5068554;28;20027;-66
2023/03/17 01:05:24;;;;;;;6.37;3.30;;;;;;;16.40;39.55;100774.19;5066544;28;20029;-67
2023/03/17 01:07:52;;;;;;;6.30;2.87;;;;;;;15.71;40.62;100772.94;5067289;28;20358;-67
2023/03/17 01:10:24;;;;;;;5.30;3.03;;;;;;;15.50;41.43;100771.03;5066950;28;20059;-67
2023/03/17 01:12:54;;;;;;;6.30;3.40;;;;;;;15.29;42.00;100762.88;5068094;28;20017;-67
2023/03/17 01:15:20;;;;;;;6.37;2.90;;;;;;;16.02;40.28;100768.47;5065948;28;20020;-67
2023/03/17 01:17:48;;;;;;;6.13;2.73;;;;;;;15.60;40.90;100768.03;5057242;28;20135;-67
2023/03/17 01:20:23;;;;;;;4.03;3.10;;;;;;;15.63;40.58;100772.34;5055634;28;20460;-67
2023/03/17 01:22:50;;;;;;;6.27;2.90;;;;;;;16.19;39.91;100766.13;5046431;28;20025;-67
2023/03/17 01:25:16;;;;;;;4.63;3.13;;;;;;;15.77;40.85;100763.97;5053858;28;20107;-68
2023/03/17 01:27:43;;;;;;;3.33;2.70;;;;;;;15.73;41.07;100751.81;5067030;28;20110;-67
2023/03/17 01:30:12;;;;;;;7.80;3.47;;;;;;;15.58;41.25;100743.50;5065886;28;20064;-68
2023/03/17 01:32:38;;;;;;;4.17;2.83;;;;;;;15.67;41.19;100750.25;5067360;28;20035;-68
2023/03/17 01:35:05;;;;;;;5.13;3.57;;;;;;;16.00;40.80;100738.69;5065861;28;20103;-68
2023/03/17 01:37:31;;;;;;;4.47;2.90;;;;;;;15.77;40.85;100749.06;5065299;28;20467;-66
2023/03/17 01:39:56;;;;;;;4.07;3.03;;;;;;;15.80;40.89;100736.69;5067044;28;20103;-67
2023/03/17 01:42:21;;;;;;;3.27;2.53;;;;;;;15.74;40.83;100733.34;5067116;28;20638;-67
2023/03/17 01:45:00;;;;;;;8.33;2.80;;;;;;;15.77;40.87;100727.97;5065438;28;20438;-67
2023/03/17 01:47:29;;;;;;;3.93;2.63;;;;;;;16.09;40.41;100728.66;5065740;28;20045;-67
2023/03/17 01:49:56;;;;;;;5.83;3.10;;;;;;;15.67;40.67;100723.91;5067708;28;20021;-67
2023/03/17 01:52:22;;;;;;;3.77;2.50;;;;;;;15.48;41.21;100720.16;5067642;28;20395;-66
2023/03/17 01:54:50;;;;;;;4.93;2.83;;;;;;;15.25;41.69;100719.97;5066503;28;20031;-67
2023/03/17 01:57:20;;;;;;;6.83;2.80;;;;;;;15.57;40.82;100719.84;5065077;28;20174;-66
2023/03/17 01:59:53;;;;;;;6.00;3.03;;;;;;;15.84;40.86;100717.25;5067178;28;20381;-67
2023/03/17 02:02:34;;;;;;;5.53;2.83;;;;;;;15.48;41.31;100717.50;5066977;28;20032;-67
2023/03/17 02:05:02;;;;;;;5.13;3.00;;;;;;;15.19;42.00;100724.56;5067631;28;20030;-67
2023/03/17 02:07:28;;;;;;;8.13;3.43;;;;;;;15.33;41.16;100714.47;5066169;28;20025;-67
2023/03/17 02:09:55;;;;;;;6.23;3.17;;;;;;;16.05;40.12;100711.25;5068046;28;20035;-67
2023/03/17 02:12:23;;;;;;;3.60;2.60;;;;;;;16.19;39.98;100704.63;5066486;28;20025;-67
2023/03/17 02:14:49;;;;;;;4.43;3.00;;;;;;;15.87;40.51;100707.47;5067360;28;20137;-67
2023/03/17 02:17:14;;;;;;;3.93;2.80;;;;;;;15.52;40.92;100698.91;5064613;28;20147;-67
2023/03/17 02:19:41;;;;;;;4.43;2.60;;;;;;;15.54;40.76;100714.69;5067687;28;20107;-67
2023/03/17 02:22:07;;;;;;;3.87;2.33;;;;;;;16.21;39.61;100715.97;5064672;28;20458;-67
2023/03/17 02:24:36;;;;;;;2.83;2.50;;;;;;;16.15;39.63;100713.56;5066406;28;20032;-67
2023/03/17 02:27:10;;;;;;;7.90;2.60;;;;;;;15.76;40.44;100710.44;5064553;28;20070;-67
2023/03/17 02:29:36;;;;;;;8.63;3.10;;;;;;;15.95;40.26;100704.56;5056119;28;20480;-67
2023/03/17 02:32:04;;;;;;;4.33;2.80;;;;;;;15.67;40.40;100704.59;5070500;28;20480;-68
2023/03/17 02:34:30;;;;;;;7.53;2.80;;;;;;;16.18;39.85;100705.53;5070004;28;20383;-68
2023/03/17 02:36:56;;;;;;;3.47;2.83;;;;;;;15.66;40.38;100708.16;5070380;28;20032;-68
2023/03/17 02:39:22;;;;;;;5.13;3.27;;;;;;;15.89;40.39;100705.63;5068890;28;20388;-68
2023/03/17 02:41:47;;;;;;;8.77;2.70;;;;;;;16.31;39.26;100698.91;5069774;28;20064;-68
2023/03/17 02:44:12;;;;;;;4.03;2.80;;;;;;;15.97;39.90;100708.00;5069036;28;20032;-68
2023/03/17 02:46:38;;;;;;;6.40;2.60;;;;;;;16.72;38.50;100695.66;5069523;28;20493;-68
2023/03/17 02:49:04;;;;;;;4.47;2.90;;;;;;;16.49;39.05;100709.72;5068582;28;20083;-67
2023/03/17 02:51:29;;;;;;;5.10;2.60;;;;;;;16.57;38.62;100707.66;5069805;28;20025;-67
2023/03/17 02:53:54;;;;;;;6.30;3.27;;;;;;;17.16;37.86;100695.75;5070977;28;20024;-67
2023/03/17 02:56:20;;;;;;;3.17;2.60;;;;;;;17.34;37.44;100706.50;5067664;28;20036;-67
2023/03/17 02:58:45;;;;;;;4.10;2.97;;;;;;;16.24;39.06;100721.16;5065853;28;20036;-68
2023/03/17 03:01:11;;;;;;;4.47;2.67;;;;;;;16.99;38.09;100708.75;5068967;28;20025;-68
2023/03/17 03:03:37;;;;;;;7.73;3.07;;;;;;;16.95;38.13;100706.25;5070297;28;20032;-68
2023/03/17 03:06:03;;;;;;;7.27;2.80;;;;;;;16.99;38.09;100701.69;5069639;28;20024;-68
2023/03/17 03:08:29;;;;;;;4.50;2.67;;;;;;;17.32;37.50;100695.13;5069962;28;20032;-68
2023/03/17 03:10:55;;;;;;;3.97;2.43;;;;;;;16.74;38.36;100688.53;5068166;28;20094;-68
2023/03/17 03:13:20;;;;;;;6.70;3.03;;;;;;;17.26;37.53;100696.25;5069140;28;20275;-68
2023/03/17 03:15:46;;;;;;;3.37;2.70;;;;;;;16.98;38.23;100697.34;5069163;28;20496;-68
2023/03/17 03:18:11;;;;;;;5.17;3.10;;;;;;;17.14;37.87;100702.88;5068325;28;20375;-68
2023/03/17 03:20:37;;;;;;;4.57;3.10;;;;;;;16.36;39.86;100726.00;5068721;28;20395;-68
2023/03/17 03:23:03;;;;;;;5.80;2.60;;;;;;;15.77;40.59;100721.81;5068015;28;20495;-67
2023/03/17 03:25:28;;;;;;;4.27;2.57;;;;;;;16.35;39.70;100728.66;5066279;28;20031;-67
2023/03/17 03:27:54;;;;;;;5.07;2.80;;;;;;;17.06;38.53;100710.22;5067222;28;20066;-67
2023/03/17 03:30:19;;;;;;;3.30;2.80;;;;;;;16.81;39.28;100715.56;5068172;28;20480;-67
2023/03/17 03:32:46;;;;;;;4.40;3.10;;;;;;;16.79;39.30;100713.84;5071190;28;20024;-66
2023/03/17 03:35:11;;;;;;;4.20;3.07;;;;;;;16.61;39.51;100719.81;5069761;28;20042;-67
2023/03/17 03:37:36;;;;;;;5.17;3.03;;;;;;;17.18;38.75;100719.47;5066432;28;20021;-68
2023/03/17 03:40:03;;;;;;;4.97;2.93;;;;;;;16.72;38.85;100712.34;5068945;28;20024;-68
2023/03/17 03:42:28;;;;;;;3.63;2.47;;;;;;;15.82;40.38;100725.19;5070717;28;20017;-68
2023/03/17 03:44:54;;;;;;;5.43;2.77;;;;;;;16.26;40.01;100724.59;5067601;28;20077;-68
2023/03/17 03:47:19;;;;;;;4.37;2.63;;;;;;;16.66;38.93;100738.97;5069470;28;20516;-68
2023/03/17 03:49:45;;;;;;;6.43;3.27;;;;;;;16.81;38.56;100734.06;5068146;28;20039;-67
2023/03/17 03:52:10;;;;;;;4.47;2.90;;;;;;;17.01;38.14;100734.19;5065491;28;20028;-67
2023/03/17 03:54:35;;;;;;;5.33;3.07;;;;;;;17.01;38.17;100734.19;5070110;28;20489;-67
2023/03/17 03:57:01;;;;;;;12.93;3.60;;;;;;;16.58;38.82;100743.66;5067240;28;20029;-67
2023/03/17 03:59:26;;;;;;;3.40;2.60;;;;;;;16.78;38.65;100745.56;5068704;28;20047;-66
2023/03/17 04:01:51;;;;;;;4.23;2.93;;;;;;;17.42;37.65;100742.25;5068691;28;20403;-67
2023/03/17 04:04:17;;;;;;;6.73;2.53;;;;;;;17.04;38.04;100743.78;5066681;28;20058;-68
2023/03/17 04:06:42;;;;;;;4.73;2.70;;;;;;;17.24;37.80;100735.06;5068313;28;20047;-67
2023/03/17 04:09:08;;;;;;;4.70;2.90;;;;;;;17.53;37.64;100727.75;5069280;28;20029;-68
2023/03/17 04:11:33;;;;;;;3.87;2.67;;;;;;;17.23;37.69;100736.00;5068060;28;20017;-68
2023/03/17 04:13:59;;;;;;;3.83;2.73;;;;;;;17.35;37.80;100737.28;5069116;28;20036;-68
2023/03/17 04:16:25;;;;;;;4.13;2.70;;;;;;;17.17;38.41;100744.16;5067846;28;20025;-68
2023/03/17 04:18:50;;;;;;;4.37;3.20;;;;;;;17.34;37.77;100720.56;5065277;28;20557;-67
2023/03/17 04:21:17;;;;;;;4.43;2.97;;;;;;;16.25;39.44;100736.03;5068939;28;20791;-67
2023/03/17 04:23:44;;;;;;;3.43;2.43;;;;;;;17.33;37.63;100729.41;5068897;28;20029;-67
2023/03/17 04:26:10;;;;;;;3.87;2.53;;;;;;;16.74;38.38;100723.72;5067223;28;20028;-67
2023/03/17 04:28:35;;;;;;;5.53;2.83;;;;;;;17.34;37.70;100728.50;5067889;28;20058;-67
2023/03/17 04:31:01;;;;;;;5.23;2.50;;;;;;;17.30;37.72;100716.34;5067914;28;20020;-67
2023/03/17 04:33:26;;;;;;;6.90;2.70;;;;;;;17.07;38.03;100712.81;5066431;28;20065;-68
2023/03/17 04:35:51;;;;;;;3.43;2.40;;;;;;;16.52;38.78;100725.44;5063820;28;20033;-67
2023/03/17 04:38:17;;;;;;;4.03;2.53;;;;;;;17.71;37.17;100719.06;5065855;28;20032;-68
2023/03/17 04:40:42;;;;;;;3.90;2.60;;;;;;;17.45;37.13;100736.84;5067456;28;20115;-68
2023/03/17 04:43:09;;;;;;;7.33;3.70;;;;;;;17.55;37.40;100733.84;5066706;28;20706;-67
2023/03/17 04:45:35;;;;;;;3.70;2.53;;;;;;;17.67;37.06;100740.38;5068411;28;20021;-67
2023/03/17 04:48:00;;;;;;;5.77;2.37;;;;;;;18.11;36.47;100733.28;5066520;28;20074;-67
2023/03/17 04:50:26;;;;;;;7.20;3.00;;;;;;;17.37;37.89;100735.44;5067247;28;20570;-67
2023/03/17 04:52:51;;;;;;;3.67;2.13;;;;;;;17.52;37.56;100736.63;5066790;28;20523;-67
2023/03/17 04:55:17;;;;;;;5.20;2.47;;;;;;;17.79;36.98;100731.94;5067752;28;20042;-67
2023/03/17 04:57:43;;;;;;;3.30;2.20;;;;;;;17.46;37.32;100735.94;5067389;28;20021;-67
2023/03/17 05:00:09;;;;;;;5.70;2.63;;;;;;;17.68;37.03;100729.78;5066365;28;20109;-67
2023/03/17 05:02:34;;;;;;;7.23;2.50;;;;;;;17.53;37.38;100731.25;5068994;28;20024;-67
2023/03/17 05:05:00;;;;;;;3.37;2.40;;;;;;;17.16;37.83;100726.56;5066842;28;20058;-67
2023/03/17 05:07:25;;;;;;;3.07;2.30;;;;;;;17.38;37.37;100721.28;5065153;28;20484;-67
2023/03/17 05:09:50;;;;;;;5.73;2.53;;;;;;;17.90;36.67;100708.59;5067645;28;20020;-67
2023/03/17 05:12:16;;;;;;;3.30;2.30;;;;;;;17.34;37.70;100688.88;5068385;28;20043;-67
2023/03/17 05:14:41;;;;;;;3.80;2.50;;;;;;;17.30;37.51;100687.28;5066299;28;20024;-67
2023/03/17 05:17:06;;;;;;;4.50;2.70;;;;;;;17.29;38.12;100681.13;5066956;28;20059;-67
2023/03/17 05:19:32;;;;;;;3.37;2.60;;;;;;;17.06;38.36;100668.88;5068966;28;20396;-66
2023/03/17 05:21:57;;;;;;;4.60;2.37;;;;;;;17.26;37.66;100680.41;5067159;28;20035;-67
2023/03/17 05:24:23;;;;;;;4.47;2.77;;;;;;;17.05;38.38;100680.34;5067214;28;20028;-67
2023/03/17 05:26:48;;;;;;;5.07;2.73;;;;;;;16.63;39.20;100675.75;5067088;28;20115;-66
2023/03/17 05:29:14;;;;;;;3.73;2.60;;;;;;;16.72;39.11;100696.53;5066724;28;20067;-67
2023/03/17 05:31:40;;;;;;;3.20;2.27;;;;;;;16.42;39.54;100704.66;5066474;28;20055;-67
2023/03/17 05:34:06;;;;;;;6.47;3.00;;;;;;;15.58;40.89;100718.97;5066808;28;20454;-67
2023/03/17 05:36:32;;;;;;;8.67;2.90;;;;;;;15.76;41.00;100726.25;5067790;28;20476;-67
2023/03/17 05:38:57;;;;;;;4.53;2.90;;;;;;;16.72;38.96;100712.34;5061754;28;20035;-67
2023/03/17 05:41:23;;;;;;;3.80;2.53;;;;;;;16.34;39.41;100701.44;5066006;28;20029;-67
2023/03/17 05:43:48;;;;;;;5.40;3.23;;;;;;;16.77;39.06;100698.97;5065553;28;20032;-68
2023/03/17 05:46:14;;;;;;;3.97;2.73;;;;;;;16.49;39.08;100699.16;5066876;28;20031;-67
2023/03/17 05:48:40;;;;;;;3.73;2.23;;;;;;;16.22;39.80;100692.19;5065951;28;20024;-67
2023/03/17 05:51:06;;;;;;;6.83;2.27;;;;;;;16.18;39.78;100714.28;5066578;28;20103;-67
2023/03/17 05:53:32;;;;;;;6.63;2.53;;;;;;;16.29;39.54;100713.91;5068885;28;20190;-68
2023/03/17 05:55:57;;;;;;;2.73;2.33;;;;;;;16.85;38.66;100718.03;5066734;28;20059;-67
2023/03/17 05:58:23;;;;;;;3.77;2.60;;;;;;;16.84;38.33;100710.16;5065698;28;20551;-68
2023/03/17 06:00:48;;;;;;;3.63;2.37;;;;;;;16.56;39.17;100700.66;5066787;28;20020;-67
2023/03/17 06:03:14;;;;;;;7.70;2.63;;;;;;;16.67;39.08;100710.81;5068445;28;20060;-67
2023/03/17 06:05:40;;;;;;;2.97;2.27;;;;;;;16.31;39.73;100696.28;5068749;28;20024;-67
2023/03/17 06:08:05;;;;;;;3.87;2.47;;;;;;;16.69;38.77;100693.13;5068850;28;20032;-67
2023/03/17 06:10:31;;;;;;;7.20;2.37;;;;;;;15.62;40.84;100691.59;5071692;28;20024;-67
2023/03/17 06:12:57;;;;;;;4.27;2.43;;;;;;;16.56;39.18;100679.56;5071765;28;20430;-67
2023/03/17 06:15:23;;;;;;;5.43;2.50;;;;;;;16.72;38.95;100685.97;5070667;28;20455;-67
2023/03/17 06:17:49;;;;;;;4.73;2.80;;;;;;;16.48;39.47;100692.16;5068548;28;20028;-67
2023/03/17 06:20:14;;;;;;;5.30;2.57;;;;;;;16.52;39.48;100701.69;5071928;28;20043;-66
2023/03/17 06:22:41;;;;;;;3.47;2.30;;;;;;;16.44;39.48;100702.84;5059225;28;20071;-66
2023/03/17 06:25:07;;;;;;;6.27;2.60;;;;;;;15.93;40.43;100722.22;5049486;28;20059;-66
2023/03/17 06:27:32;;;;;;;3.80;2.40;;;;;;;16.36;39.78;100735.66;5069490;28;20029;-67
2023/03/17 06:29:59;;;;;;;5.93;2.77;;;;;;;16.52;39.32;100725.44;5051895;28;20036;-67
2023/03/17 06:32:24;;;;;;;6.03;2.87;;;;;;;15.75;40.20;100724.50;5049580;28;20010;-68
2023/03/17 06:34:50;;;;;;;3.87;2.80;;;;;;;16.03;40.16;100728.91;5051832;28;20037;-68
2023/03/17 06:37:16;;;;;;;3.47;2.53;;;;;;;16.06;40.08;100727.91;5057262;28;20090;-67
2023/03/17 06:39:42;;;;;;;14.23;2.70;;;;;;;16.72;39.01;100722.91;5067964;28;20052;-68
2023/03/17 06:42:08;;;;;;;4.13;2.40;;;;;;;16.24;40.43;100721.16;5070145;28;20036;-67
2023/03/17 06:44:33;;;;;;;6.53;2.80;;;;;;;15.73;41.12;100707.91;5067812;28;20036;-68
2023/03/17 06:46:59;;;;;;;6.13;2.87;;;;;;;16.63;39.47;100708.28;5068226;28;20037;-67
2023/03/17 06:49:25;;;;;;;5.17;2.50;;;;;;;16.32;40.42;100723.50;5069237;28;20396;-68
2023/03/17 06:51:50;;;;;;;7.70;2.80;;;;;;;16.53;39.74;100716.59;5071360;28;20059;-68
2023/03/17 06:54:17;;;;;;;4.77;2.60;;;;;;;17.33;37.77;100713.56;5067400;28;20056;-67
2023/03/17 06:56:43;;;;;;;7.70;3.23;;;;;;;16.65;38.78;100710.88;5070802;28;20460;-67
2023/03/17 06:59:10;;;;;;;5.93;2.80;;;;;;;17.08;39.04;100701.34;5069389;28;20558;-68
2023/03/17 07:01:37;;;;;;;4.40;2.43;;;;;;;17.08;38.90;100703.13;5066440;28;20035;-67
2023/03/17 07:04:05;;;;;;;6.03;2.80;;;;;;;17.12;38.74;100713.50;5068636;28;20032;-67
2023/03/17 07:06:32;;;;;;;7.63;2.70;;;;;;;17.28;38.27;100728.72;5067489;28;20036;-67
2023/03/17 07:08:58;;;;;;;3.67;2.40;;;;;;;16.82;39.27;100723.44;5064185;28;20054;-67
2023/03/17 07:11:25;;;;;;;6.00;2.83;;;;;;;17.41;38.32;100732.59;5060864;28;20028;-67
2023/03/17 07:13:50;;;;;;;8.27;4.17;;;;;;;17.10;39.01;100731.19;5060235;28;20041;-67
2023/03/17 07:16:18;;;;;;;7.70;2.77;;;;;;;17.59;38.21;100727.50;5064701;28;20434;-68
2023/03/17 07:18:44;;;;;;;3.13;2.33;;;;;;;17.94;37.84;100722.53;5065744;28;20048;-66
2023/03/17 07:21:09;;;;;;;6.43;2.60;;;;;;;18.11;37.15;100717.41;5067328;28;20761;-66
2023/03/17 07:23:35;;;;;;;11.03;3.30;;;;;;;17.72;37.79;100702.28;5068580;28;20035;-66
2023/03/17 07:26:01;;;;;;;6.13;2.77;;;;;;;17.66;38.11;100706.97;5069553;28;20391;-66
2023/03/17 07:28:27;;;;;;;8.07;3.30;;;;;;;18.26;37.30;100705.28;5066310;28;20413;-67
2023/03/17 07:30:52;;;;;;;8.77;2.80;;;;;;;18.06;37.11;100703.50;5068812;28;20122;-67
2023/03/17 07:33:22;;;;;;;6.20;2.53;;;;;;;18.55;36.63;100715.53;5062959;28;20460;-66
2023/03/17 07:35:48;;;;;;;4.50;2.53;;;;;;;18.89;36.06;100713.97;5058158;28;20032;-67
2023/03/17 07:38:16;;;;;;;5.00;2.70;;;;;;;18.85;35.84;100715.03;5060607;28;20468;-67
2023/03/17 07:40:42;;;;;;;5.77;2.57;;;;;;;19.07;35.89;100710.47;5080592;28;20033;-67
2023/03/17 07:43:08;;;;;;;5.53;3.23;;;;;;;19.08;35.94;100722.78;5060147;28;20091;-66
2023/03/17 07:45:34;;;;;;;6.90;2.97;;;;;;;19.94;34.80;100728.34;5063864;28;20036;-67
2023/03/17 07:48:01;;;;;;;7.80;3.50;;;;;;;19.42;35.45;100731.75;5069184;28;20131;-67
2023/03/17 07:50:27;;;;;;;7.83;3.80;;;;;;;19.39;35.78;100734.56;5068188;28;20024;-67
2023/03/17 07:52:52;;;;;;;5.30;3.03;;;;;;;19.19;36.00;100732.84;5066041;28;20312;-67
2023/03/17 07:55:18;;;;;;;5.93;2.40;;;;;;;19.89;34.82;100734.81;5065770;28;20027;-67
2023/03/17 07:57:43;;;;;;;7.10;3.37;;;;;;;21.01;34.01;100733.38;5065686;28;20466;-67
2023/03/17 08:00:09;;;;;;;4.93;3.00;;;;;;;21.90;32.28;100724.78;5061800;28;20468;-67
2023/03/17 08:02:36;;;;;;;3.85;2.45;;;;;;;22.73;31.69;100716.22;5048480;28;20063;-67
2023/03/17 08:05:03;;;;;;;4.28;2.40;;;;;;;22.76;31.38;100716.03;5048985;28;20036;-67
2023/03/17 08:07:30;;;;;;;4.68;2.33;;;;;;;21.81;31.79;100723.50;5048399;28;20025;-67
2023/03/17 08:09:56;;;;;;;6.68;2.45;;;;;;;23.13;29.93;100713.69;5048176;28;20085;-67
2023/03/17 08:12:22;;;;;;;6.80;3.03;;;;;;;23.55;29.02;100724.34;5046696;28;20029;-67
2023/03/17 08:14:48;;;;;;;7.38;2.63;;;;;;;23.84;28.96;100727.72;5048666;28;20025;-67
2023/03/17 08:17:13;;;;;;;7.43;3.42;;;;;;;22.36;29.98;100737.16;5047812;28;20048;-67
2023/03/17 08:19:39;;;;;;;6.00;3.15;;;;;;;23.60;29.11;100732.03;5048777;28;20052;-67
2023/03/17 08:22:05;;;;;;;7.38;3.20;;;;;;;22.63;29.28;100736.41;5047859;28;20312;-67
2023/03/17 08:24:31;;;;;;;7.15;3.38;;;;;;;23.06;28.91;100733.69;5048083;28;20424;-67
2023/03/17 08:26:56;;;;;;;13.13;3.15;;;;;;;22.56;30.34;100722.63;5049623;28;20537;-67
2023/03/17 08:29:22;;;;;;;7.55;3.03;;;;;;;23.57;29.14;100729.56;5047733;28;20025;-66
2023/03/17 08:31:47;;;;;;;5.60;2.30;;;;;;;23.60;28.25;100732.88;5047183;28;20021;-66
2023/03/17 08:34:15;;;;;;;6.80;2.97;;;;;;;23.04;29.69;100732.94;5048150;28;20036;-66
2023/03/17 08:36:40;;;;;;;4.07;2.80;;;;;;;21.45;32.22;100730.00;5048432;28;20032;-66
2023/03/17 08:39:06;;;;;;;7.38;3.17;;;;;;;22.70;30.33;100721.75;5048174;28;20035;-66
2023/03/17 08:41:31;;;;;;;4.55;2.58;;;;;;;22.53;30.49;100721.00;5048524;28;20029;-66
2023/03/17 08:43:57;;;;;;;5.13;3.00;;;;;;;21.05;33.02;100724.28;5047972;28;20028;-66
2023/03/17 08:46:31;;;;;;;9.93;3.17;;;;;;;22.01;31.98;100719.69;5046945;28;20036;-66
2023/03/17 08:48:58;;;;;;;9.00;3.42;;;;;;;20.94;33.04;100724.03;5047784;28;20476;-66
2023/03/17 08:51:27;;;;;;;6.18;3.50;;;;;;;20.48;34.23;100712.28;5047629;28;20427;-66
2023/03/17 08:53:54;;;;;;;8.85;2.92;;;;;;;20.62;33.77;100715.97;5047134;28;20491;-66
2023/03/17 08:56:20;;;;;;;5.68;3.35;;;;;;;20.78;33.36;100716.88;5047650;28;20071;-66
2023/03/17 08:58:46;;;;;;;7.18;3.60;;;;;;;20.11;34.54;100730.16;5047869;28;20031;-66
2023/03/17 09:01:12;;;;;;;6.72;3.22;;;;;;;20.23;34.65;100747.19;5046893;28;20111;-66
2023/03/17 09:03:39;;;;;;;6.40;3.25;;;;;;;20.01;34.93;100744.78;5047982;28;20540;-67
2023/03/17 09:06:06;;;;;;;6.05;3.08;;;;;;;20.23;35.09;100741.06;5047187;28;20548;-66
2023/03/17 09:08:33;;;;;;;5.90;3.10;;;;;;;20.23;34.95;100735.75;5047275;28;20046;-66
2023/03/17 09:11:00;;;;;;;7.15;3.50;;;;;;;20.82;34.44;100738.84;5049051;28;20033;-66
2023/03/17 09:13:25;;;;;;;6.35;3.28;;;;;;;20.34;35.13;100744.00;5046382;28;20033;-66
2023/03/17 09:15:51;;;;;;;4.88;3.20;;;;;;;21.30;33.42;100744.16;5047432;28;20031;-66
2023/03/17 09:18:18;;;;;;;9.68;3.20;;;;;;;21.38;33.34;100747.25;5048553;28;20028;-66
2023/03/17 09:20:43;;;;;;;7.00;3.38;;;;;;;22.02;32.87;100755.13;5048460;28;20358;-67
2023/03/17 09:23:10;;;;;;;8.80;3.28;;;;;;;23.24;31.06;100757.47;5048420;28;20550;-66
2023/03/17 09:25:37;;;;;;;6.22;3.35;;;;;;;23.75;29.66;100763.00;5048946;28;20029;-66
2023/03/17 09:28:04;;;;;;;7.32;3.20;;;;;;;22.94;29.99;100761.97;5046235;28;20520;-66
2023/03/17 09:30:30;;;;;;;7.90;3.28;;;;;;;23.86;29.04;100771.16;5048905;28;20469;-67
2023/03/17 09:32:55;;;;;;;8.77;2.83;;;;;;;22.81;30.54;100772.53;5047481;28;20032;-67
2023/03/17 09:35:21;;;;;;;7.07;3.42;;;;;;;21.16;32.59;100777.69;5047880;28;20037;-67
2023/03/17 09:37:47;;;;;;;5.13;3.08;;;;;;;21.11;32.98;100782.38;5048526;28;20070;-66
2023/03/17 09:40:17;;;;;;;7.65;3.47;;;;;;;21.55;32.29;100785.34;5048408;28;20075;-67
2023/03/17 09:42:51;;;;;;;6.47;3.08;;;;;;;21.61;32.38;100780.53;5046729;28;20025;-67
2023/03/17 09:45:31;;;;;;;5.32;3.13;;;;;;;20.94;33.65;100777.16;5046877;28;20056;-67
2023/03/17 09:48:21;;;;;;;7.90;3.30;;;;;;;21.58;32.41;100786.00;5046802;28;20075;-67
2023/03/17 09:50:49;;;;;;;7.65;3.50;;;;;;;22.08;32.08;100772.53;5047646;28;20056;-67
2023/03/17 09:53:41;;;;;;;7.45;3.17;;;;;;;21.91;32.23;100782.34;5047992;28;20037;-67
2023/03/17 09:56:12;;;;;;;6.22;3.50;;;;;;;23.07;31.03;100787.84;5040910;28;20064;-67
2023/03/17 09:58:44;;;;;;;5.97;3.55;;;;;;;22.51;31.44;100802.78;5048650;28;20493;-67
2023/03/17 10:01:12;;;;;;;9.85;3.70;;;;;;;22.82;31.56;100816.91;5047759;28;20115;-67
2023/03/17 10:03:37;;;;;;;5.65;3.42;;;;;;;24.54;29.74;100814.66;5047724;28;20049;-67
2023/03/17 10:06:32;;;;;;;7.00;3.15;;;;;;;25.69;28.22;100806.56;5047618;28;20017;-68
2023/03/17 10:09:22;;;;;;;6.63;3.63;;;;;;;25.95;27.06;100807.28;5046987;28;20045;-67
2023/03/17 10:12:00;;;;;;;12.05;3.42;;;;;;;25.17;27.49;100812.06;5046405;28;20120;-66
2023/03/17 10:14:47;;;;;;;7.47;3.38;;;;;;;23.32;29.47;100814.69;5048074;28;20021;-67
2023/03/17 10:17:19;;;;;;;7.00;3.88;;;;;;;22.23;31.77;100814.22;5046160;28;20562;-67
2023/03/17 10:19:58;;;;;;;10.93;4.28;;;;;;;21.73;32.92;100810.88;5049097;28;20032;-67
2023/03/17 10:22:40;;;;;;;10.70;4.28;;;;;;;23.51;30.48;100814.34;5046766;28;20439;-67
2023/03/17 10:25:15;;;;;;;8.85;4.05;;;;;;;23.27;30.81;100805.28;5045574;28;20090;-67
2023/03/17 10:27:47;;;;;;;9.07;4.35;;;;;;;23.15;30.79;100799.78;5047306;28;20032;-67
2023/03/17 10:30:19;;;;;;;7.85;4.70;;;;;;;23.25;31.60;100809.88;5046706;28;20041;-67
2023/03/17 10:32:47;;;;;;;14.25;4.25;;;;;;;22.17;32.63;100819.88;5047657;28;20397;-67
2023/03/17 10:35:15;;;;;;;13.02;4.55;;;;;;;22.78;31.72;100818.03;5046445;28;20108;-68
2023/03/17 10:37:41;;;;;;;12.90;4.00;;;;;;;23.86;30.12;100808.53;5046978;28;20032;-67
2023/03/17 10:40:10;;;;;;;7.15;4.07;;;;;;;23.32;30.66;100804.03;5046963;28;20551;-67
2023/03/17 10:42:52;;;;;;;8.18;3.97;;;;;;;22.44;32.84;100806.78;5048313;28;20021;-67
2023/03/17 10:45:27;;;;;;;8.30;4.25;;;;;;;23.39;31.31;100799.16;5047122;28;20033;-67
2023/03/17 10:47:56;;;;;;;11.30;4.75;;;;;;;23.13;31.27;100793.66;5047903;28;20497;-66
2023/03/17 10:50:24;;;;;;;11.82;4.60;;;;;;;23.38;30.94;100792.09;5046456;28;20024;-67
2023/03/17 10:52:59;;;;;;;11.23;4.97;;;;;;;23.32;31.38;100787.19;5049486;28;20349;-66
2023/03/17 10:55:30;;;;;;;8.48;4.95;;;;;;;23.28;31.48;100791.00;5051410;28;20040;-68
2023/03/17 10:58:12;;;;;;;7.70;4.13;;;;;;;23.81;31.13;100791.97;5051892;28;20476;-67
2023/03/17 11:00:46;;;;;;;9.90;5.35;;;;;;;23.28;32.32;100783.84;5049760;28;20044;-67
2023/03/17 11:03:21;;;;;;;10.95;4.90;;;;;;;24.30;30.68;100784.28;5049777;28;20029;-67
2023/03/17 11:06:01;;;;;;;9.70;4.75;;;;;;;24.34;30.78;100780.44;5049879;28;20013;-67
2023/03/17 11:08:31;;;;;;;7.35;4.00;;;;;;;23.91;31.37;100772.72;5050885;28;20389;-67
2023/03/17 11:10:57;;;;;;;9.55;4.85;;;;;;;23.66;31.82;100763.63;5049897;28;20159;-67
2023/03/17 11:13:29;;;;;;;12.65;4.93;;;;;;;24.42;30.14;100766.56;5048780;28;20017;-67
2023/03/17 11:16:09;;;;;;;13.35;4.35;;;;;;;23.82;31.34;100764.34;5051219;28;20066;-67
2023/03/17 11:18:36;;;;;;;7.68;4.57;;;;;;;23.80;31.16;100747.56;5049983;28;20104;-68
2023/03/17 11:21:08;;;;;;;13.23;4.85;;;;;;;24.79;30.15;100732.78;5048933;28;20063;-67
2023/03/17 11:23:57;;;;;;;10.43;4.68;;;;;;;24.44;30.35;100741.47;5051028;28;20031;-67
2023/03/17 11:26:26;;;;;;;7.00;4.22;;;;;;;24.58;30.26;100756.53;5049542;28;20471;-67